Time;durP1;ratioP1;P1;durP2;ratioP2;P2;SDS_P1;SDS_P2;PMS_P1;PMS_P2;Temp;Humidity;BMP_temperature;BMP_pressure;BME280_temperature;BME280_humidity;BME280_pressure;Samples;Min_cycle;Max_cycle;Signal;HPM_P1;HPM_P2
2021/12/05 00:17:32;;;;;;;;;;;4.50;99.90;;;;;;5062473;28;20757;-78
2021/12/05 00:20:05;;;;;;;;;;;4.50;99.90;;;;;;5062108;28;20384;-78
2021/12/05 00:22:37;;;;;;;;;;;4.40;99.90;;;;;;5061977;28;19938;-78
2021/12/05 00:25:06;;;;;;;;;;;4.40;99.90;;;;;;5063023;28;20009;-78
2021/12/05 00:27:37;;;;;;;;;;;4.40;99.90;;;;;;5064980;28;19924;-77
2021/12/05 00:30:23;;;;;;;;;;;4.40;99.90;;;;;;5063001;28;20322;-78
2021/12/05 00:32:55;;;;;;;;;;;4.40;99.90;;;;;;5066718;28;19928;-78
2021/12/05 00:35:55;;;;;;;;;;;4.40;99.90;;;;;;5060946;28;20386;-78
2021/12/05 00:41:32;;;;;;;;;;;4.40;99.90;;;;;;5027907;28;19924;-78
2021/12/05 00:47:13;;;;;;;;;;;4.40;99.90;;;;;;5062800;28;19935;-78
2021/12/05 01:01:11;;;;;;;;;;;4.40;99.90;;;;;;5023966;28;20333;-78
2021/12/05 01:09:52;;;;;;;;;;;4.30;99.90;;;;;;5066505;28;20318;-78
2021/12/05 01:12:39;;;;;;;;;;;4.30;99.90;;;;;;5108436;27;19934;-78
2021/12/05 01:15:12;;;;;;;;;;;4.30;99.90;;;;;;5115608;28;19930;-78
2021/12/05 01:17:52;;;;;;;;;;;4.30;99.90;;;;;;5118218;28;19932;-78
2021/12/05 01:20:19;;;;;;;;;;;4.30;99.90;;;;;;5117593;27;20394;-78
2021/12/05 01:22:59;;;;;;;;;;;4.30;99.90;;;;;;5119646;27;19977;-78
2021/12/05 01:25:40;;;;;;;;;;;4.20;99.90;;;;;;5111721;28;19927;-78
2021/12/05 01:28:15;;;;;;;;;;;4.20;99.90;;;;;;5116620;27;19967;-77
2021/12/05 01:30:49;;;;;;;;;;;4.20;99.90;;;;;;5114578;28;19924;-79
2021/12/05 01:33:22;;;;;;;;;;;4.20;99.90;;;;;;5111847;28;19928;-78
2021/12/05 01:36:06;;;;;;;;;;;4.20;99.90;;;;;;5120385;27;19932;-78
2021/12/05 01:39:07;;;;;;;;;;;4.20;99.90;;;;;;5115957;28;19931;-76
2021/12/05 01:53:06;;;;;;;;;;;4.20;99.90;;;;;;5112995;27;19920;-78
2021/12/05 02:01:30;;;;;;;;;;;4.10;99.90;;;;;;5115497;28;19920;-79
2021/12/05 02:09:56;;;;;;;;;;;4.10;99.90;;;;;;5083878;28;19943;-78
2021/12/05 02:29:45;;;;;;;;;;;4.00;99.90;;;;;;5096323;28;19924;-78
2021/12/05 02:35:13;;;;;;;;;;;4.00;99.90;;;;;;5091253;28;20044;-79
2021/12/05 02:40:35;;;;;;;;;;;4.00;99.90;;;;;;5100813;28;19928;-79
2021/12/05 02:43:07;;;;;;;;;;;3.90;99.90;;;;;;5095184;28;19924;-79
2021/12/05 02:45:36;;;;;;;;;;;3.90;99.90;;;;;;5099756;28;20048;-79
2021/12/05 02:48:03;;;;;;;;;;;3.90;99.90;;;;;;5108887;28;19959;-79
2021/12/05 02:50:32;;;;;;;;;;;3.90;99.90;;;;;;5098995;28;19932;-79
2021/12/05 02:53:10;;;;;;;;;;;3.90;99.90;;;;;;5100820;28;19970;-78
2021/12/05 02:55:39;;;;;;;;;;;3.90;99.90;;;;;;5102376;28;19928;-78
2021/12/05 02:58:15;;;;;;;;;;;3.90;99.90;;;;;;5104706;28;19924;-77
2021/12/05 03:00:54;;;;;;;;;;;3.90;99.90;;;;;;5101259;28;19928;-78
2021/12/05 03:03:24;;;;;;;;;;;3.90;99.90;;;;;;5107929;28;19935;-78
2021/12/05 03:05:55;;;;;;;;;;;3.80;99.90;;;;;;5101817;28;20180;-78
2021/12/05 03:08:23;;;;;;;;;;;3.80;99.90;;;;;;5102058;28;19932;-78
2021/12/05 03:10:52;;;;;;;;;;;3.80;99.90;;;;;;5106077;28;20360;-78
2021/12/05 03:13:19;;;;;;;;;;;3.80;99.90;;;;;;5097770;28;19924;-75
2021/12/05 03:15:47;;;;;;;;;;;3.80;99.90;;;;;;5098072;28;19923;-78
2021/12/05 03:18:14;;;;;;;;;;;3.80;99.90;;;;;;5105952;28;20003;-77
2021/12/05 03:20:41;;;;;;;;;;;3.80;99.90;;;;;;5103432;28;21515;-78
2021/12/05 03:23:08;;;;;;;;;;;3.80;99.90;;;;;;5102932;28;19928;-78
2021/12/05 03:25:36;;;;;;;;;;;3.80;99.90;;;;;;5101482;28;20576;-80
2021/12/05 03:28:05;;;;;;;;;;;3.80;99.90;;;;;;5099743;28;19924;-78
2021/12/05 03:30:34;;;;;;;;;;;3.70;99.90;;;;;;5103874;28;19934;-79
2021/12/05 03:33:03;;;;;;;;;;;3.80;99.90;;;;;;5102209;28;20351;-78
2021/12/05 03:35:31;;;;;;;;;;;3.80;99.90;;;;;;5103362;28;19941;-78
2021/12/05 03:38:02;;;;;;;;;;;3.80;99.90;;;;;;5101786;28;19924;-78
2021/12/05 03:40:30;;;;;;;;;;;3.80;99.90;;;;;;5104345;28;19947;-78
2021/12/05 03:43:03;;;;;;;;;;;3.70;99.90;;;;;;5103368;28;19930;-79
2021/12/05 03:45:31;;;;;;;;;;;3.70;99.90;;;;;;5097265;28;19928;-78
2021/12/05 03:47:59;;;;;;;;;;;3.70;99.90;;;;;;5098907;28;20287;-78
2021/12/05 03:50:26;;;;;;;;;;;3.70;99.90;;;;;;5095939;28;19939;-78
2021/12/05 03:52:53;;;;;;;;;;;3.70;99.90;;;;;;5102018;28;19927;-78
2021/12/05 03:55:20;;;;;;;;;;;3.70;99.90;;;;;;5103435;28;21710;-78
2021/12/05 03:57:48;;;;;;;;;;;3.70;99.90;;;;;;5106533;28;19928;-79
2021/12/05 04:00:18;;;;;;;;;;;3.70;99.90;;;;;;5101438;28;19924;-78
2021/12/05 04:02:52;;;;;;;;;;;3.60;99.90;;;;;;5108413;28;19935;-78
2021/12/05 04:05:25;;;;;;;;;;;3.70;99.90;;;;;;5097786;28;19932;-78
2021/12/05 04:07:53;;;;;;;;;;;3.60;99.90;;;;;;5101129;28;19932;-78
2021/12/05 04:10:21;;;;;;;;;;;3.60;99.90;;;;;;5105282;28;19950;-78
2021/12/05 04:12:49;;;;;;;;;;;3.60;99.90;;;;;;5103483;28;19930;-77
2021/12/05 04:15:20;;;;;;;;;;;3.60;99.90;;;;;;5098868;28;19932;-75
2021/12/05 04:17:50;;;;;;;;;;;3.60;99.90;;;;;;5100969;28;20642;-78
2021/12/05 04:20:18;;;;;;;;;;;3.60;99.90;;;;;;5099388;28;19924;-78
2021/12/05 04:22:47;;;;;;;;;;;3.60;99.90;;;;;;5119546;27;19928;-78
2021/12/05 04:25:15;;;;;;;;;;;3.60;99.90;;;;;;5097212;28;20503;-78
2021/12/05 04:27:43;;;;;;;;;;;3.60;99.90;;;;;;5092438;28;20027;-75
2021/12/05 04:30:12;;;;;;;;;;;3.60;99.90;;;;;;5097870;28;20386;-78
2021/12/05 04:32:41;;;;;;;;;;;3.60;99.90;;;;;;5105250;28;19924;-78
2021/12/05 04:35:09;;;;;;;;;;;3.60;99.90;;;;;;5104362;28;19931;-78
2021/12/05 04:37:36;;;;;;;;;;;3.60;99.90;;;;;;5103834;28;20420;-78
2021/12/05 04:40:05;;;;;;;;;;;3.60;99.90;;;;;;5108473;28;19924;-78
2021/12/05 04:42:33;;;;;;;;;;;3.50;99.90;;;;;;5101803;28;19923;-78
2021/12/05 04:45:01;;;;;;;;;;;3.50;99.90;;;;;;5100787;28;19927;-78
2021/12/05 04:47:28;;;;;;;;;;;3.50;99.90;;;;;;5100762;28;20397;-78
2021/12/05 04:49:57;;;;;;;;;;;3.50;99.90;;;;;;5100367;28;20010;-78
2021/12/05 04:52:27;;;;;;;;;;;3.50;99.90;;;;;;5097892;28;20305;-78
2021/12/05 04:54:54;;;;;;;;;;;3.50;99.90;;;;;;5099076;28;19924;-78
2021/12/05 04:57:21;;;;;;;;;;;3.50;99.90;;;;;;5103286;28;19939;-78
2021/12/05 04:59:50;;;;;;;;;;;3.50;99.90;;;;;;5100155;28;19924;-76
2021/12/05 05:02:18;;;;;;;;;;;3.50;99.90;;;;;;5101435;28;19930;-79
2021/12/05 05:04:46;;;;;;;;;;;3.50;99.90;;;;;;5102994;28;19932;-78
2021/12/05 05:07:20;;;;;;;;;;;3.50;99.90;;;;;;5106961;28;19933;-77
2021/12/05 05:09:50;;;;;;;;;;;3.50;99.90;;;;;;5102588;28;19927;-78
2021/12/05 05:12:17;;;;;;;;;;;3.50;99.90;;;;;;5101671;28;19924;-79
2021/12/05 05:14:44;;;;;;;;;;;3.50;99.90;;;;;;5103908;28;19924;-78
2021/12/05 05:17:11;;;;;;;;;;;3.50;99.90;;;;;;5101681;28;19974;-78
2021/12/05 05:19:40;;;;;;;;;;;3.40;99.90;;;;;;5092617;28;20130;-78
2021/12/05 05:22:18;;;;;;;;;;;3.50;99.90;;;;;;5095628;28;19969;-79
2021/12/05 05:28:03;;;;;;;;;;;3.40;99.90;;;;;;5102142;28;19924;-78
2021/12/05 05:47:02;;;;;;;;;;;3.40;99.90;;;;;;5066721;28;20626;-76
2021/12/05 05:49:52;;;;;;;;;;;3.40;99.90;;;;;;5104686;28;19928;-76
2021/12/05 05:52:19;;;;;;;;;;;3.40;99.90;;;;;;5098088;28;20018;-76
2021/12/05 05:54:48;;;;;;;;;;;3.40;99.90;;;;;;5105179;28;19924;-78
2021/12/05 05:57:23;;;;;;;;;;;3.40;99.90;;;;;;5107274;28;19924;-78
2021/12/05 05:59:56;;;;;;;;;;;3.40;99.90;;;;;;5107982;28;19973;-79
2021/12/05 06:05:08;;;;;;;;;;;3.30;99.90;;;;;;5103338;28;20408;-76
2021/12/05 06:07:41;;;;;;;;;;;3.40;99.90;;;;;;5108202;28;19928;-79
2021/12/05 06:10:08;;;;;;;;;;;3.30;99.90;;;;;;5104924;28;19924;-78
2021/12/05 06:12:36;;;;;;;;;;;3.30;99.90;;;;;;5107556;28;19932;-78
2021/12/05 06:15:04;;;;;;;;;;;3.30;99.90;;;;;;5102972;28;19924;-78
2021/12/05 06:17:30;;;;;;;;;;;3.30;99.90;;;;;;5103484;28;20541;-78
2021/12/05 06:19:58;;;;;;;;;;;3.30;99.90;;;;;;5100665;28;19924;-77
2021/12/05 06:22:26;;;;;;;;;;;3.30;99.90;;;;;;5103352;28;19924;-78
2021/12/05 06:24:53;;;;;;;;;;;3.30;99.90;;;;;;5105949;28;19981;-78
2021/12/05 06:27:20;;;;;;;;;;;3.30;99.90;;;;;;5103103;28;20412;-78
2021/12/05 06:29:54;;;;;;;;;;;3.30;99.90;;;;;;5102402;28;19966;-76
2021/12/05 06:38:05;;;;;;;;;;;3.30;99.90;;;;;;5096945;28;19934;-79
2021/12/05 06:40:49;;;;;;;;;;;3.30;99.90;;;;;;5105713;28;19967;-76
2021/12/05 06:46:03;;;;;;;;;;;3.30;99.90;;;;;;5097397;27;20458;-76
2021/12/05 06:48:30;;;;;;;;;;;3.30;99.90;;;;;;5088220;28;19980;-80
2021/12/05 06:50:57;;;;;;;;;;;3.30;99.90;;;;;;5095835;28;20031;-76
2021/12/05 06:53:24;;;;;;;;;;;3.20;99.90;;;;;;5105038;28;19930;-77
2021/12/05 06:55:51;;;;;;;;;;;3.30;99.90;;;;;;5100447;28;19999;-79
2021/12/05 06:58:18;;;;;;;;;;;3.30;99.90;;;;;;5098375;28;20003;-77
2021/12/05 07:00:45;;;;;;;;;;;3.20;99.90;;;;;;5094259;28;19932;-79
2021/12/05 07:03:14;;;;;;;;;;;3.20;99.90;;;;;;5092940;28;19943;-77
2021/12/05 07:05:49;;;;;;;;;;;3.30;99.90;;;;;;5085959;28;19939;-77
2021/12/05 07:08:17;;;;;;;;;;;3.30;99.90;;;;;;5091331;28;19942;-79
2021/12/05 07:10:50;;;;;;;;;;;3.20;99.90;;;;;;5093037;28;19931;-80
2021/12/05 07:16:07;;;;;;;;;;;3.20;99.90;;;;;;5072890;28;19924;-77
2021/12/05 07:18:43;;;;;;;;;;;3.20;99.90;;;;;;5091152;28;19931;-79
2021/12/05 07:21:27;;;;;;;;;;;3.20;99.90;;;;;;5099883;28;19924;-79
2021/12/05 07:24:03;;;;;;;;;;;3.20;99.90;;;;;;5097660;28;19932;-78
2021/12/05 07:26:45;;;;;;;;;;;3.20;99.90;;;;;;5096427;28;19935;-80
2021/12/05 07:40:24;;;;;;;;;;;3.20;99.90;;;;;;5079268;28;19938;-79
2021/12/05 07:42:51;;;;;;;;;;;3.20;99.90;;;;;;5079733;28;19924;-81
2021/12/05 07:45:20;;;;;;;;;;;3.20;99.90;;;;;;5087842;28;19939;-80
2021/12/05 07:47:50;;;;;;;;;;;3.20;99.90;;;;;;5081941;28;20683;-77
2021/12/05 07:50:23;;;;;;;;;;;3.20;99.90;;;;;;5086004;28;19928;-80
2021/12/05 07:52:53;;;;;;;;;;;3.20;99.90;;;;;;5091439;28;20386;-80
2021/12/05 07:55:26;;;;;;;;;;;3.20;99.90;;;;;;5072227;22;19940;-75
2021/12/05 07:58:08;;;;;;;;;;;3.20;99.90;;;;;;5036660;28;19936;-75
2021/12/05 08:00:44;;;;;;;;;;;3.20;99.90;;;;;;5040619;28;20413;-75
2021/12/05 08:14:34;;;;;;;;;;;3.10;99.90;;;;;;5045107;28;20008;-76
2021/12/05 08:17:03;;;;;;;;;;;3.10;99.90;;;;;;5034980;28;20410;-76
2021/12/05 08:19:30;;;;;;;;;;;3.20;99.90;;;;;;5033654;28;20004;-76
2021/12/05 08:21:58;;;;;;;;;;;3.20;99.90;;;;;;5034523;28;20389;-76
2021/12/05 08:24:25;;;;;;;;;;;3.20;99.90;;;;;;5035222;28;19925;-77
2021/12/05 08:26:53;;;;;;;;;;;3.20;99.90;;;;;;5039114;28;19951;-77
2021/12/05 08:29:28;;;;;;;;;;;3.10;99.90;;;;;;5034877;28;20455;-77
2021/12/05 08:32:07;;;;;;;;;;;3.10;99.90;;;;;;5037676;28;20844;-76
2021/12/05 08:40:39;;;;;;;;;;;3.10;99.90;;;;;;5024911;28;19933;-77
2021/12/05 08:43:32;;;;;;;;;;;3.10;99.90;;;;;;5042362;28;20015;-76
2021/12/05 09:25:00;;;;;;;;;;;3.10;99.90;;;;;;5105862;27;20104;-76
2021/12/05 09:28:02;;;;;;;;;;;3.10;99.90;;;;;;5078605;28;19978;-76
2021/12/05 09:39:19;;;;;;;;;;;3.00;99.90;;;;;;5105959;28;20515;-76
2021/12/05 10:07:00;;;;;;;;;;;3.10;99.90;;;;;;5085382;28;20006;-77
2021/12/05 10:09:44;;;;;;;;;;;3.00;99.90;;;;;;5091689;28;19923;-76
2021/12/05 10:15:16;;;;;;;;;;;3.00;99.90;;;;;;5083168;28;19920;-78
2021/12/05 10:18:11;;;;;;;;;;;3.00;99.90;;;;;;5073041;28;19931;-77
2021/12/05 10:26:44;;;;;;;;;;;3.00;99.90;;;;;;5021215;28;19921;-77
2021/12/05 10:35:16;;;;;;;;;;;2.90;99.90;;;;;;5086687;28;19951;-76
2021/12/05 10:37:50;;;;;;;;;;;2.90;99.90;;;;;;5073857;28;19928;-77
2021/12/05 10:40:20;;;;;;;;;;;2.90;99.90;;;;;;5070684;28;20321;-77
2021/12/05 10:42:48;;;;;;;;;;;3.00;99.90;;;;;;5069574;28;20015;-77
2021/12/05 10:45:28;;;;;;;;;;;3.00;99.90;;;;;;5073253;28;19974;-77
2021/12/05 10:47:58;;;;;;;;;;;3.00;99.90;;;;;;5083386;28;20299;-76
2021/12/05 10:50:28;;;;;;;;;;;3.00;99.90;;;;;;5064734;28;20250;-77
2021/12/05 10:53:10;;;;;;;;;;;3.00;99.90;;;;;;5071839;28;19931;-77
2021/12/05 10:55:40;;;;;;;;;;;3.00;99.90;;;;;;5074861;28;20321;-77
2021/12/05 10:58:07;;;;;;;;;;;3.00;99.90;;;;;;5068760;28;19947;-77
2021/12/05 11:00:34;;;;;;;;;;;3.00;99.90;;;;;;5072640;28;19925;-77
2021/12/05 11:03:14;;;;;;;;;;;3.10;99.90;;;;;;5067855;28;19970;-76
2021/12/05 11:05:44;;;;;;;;;;;3.10;99.90;;;;;;5075889;28;19930;-76
2021/12/05 11:08:30;;;;;;;;;;;3.10;99.90;;;;;;5077862;28;19924;-77
2021/12/05 11:11:07;;;;;;;;;;;3.10;99.90;;;;;;5075006;28;19924;-77
2021/12/05 11:13:36;;;;;;;;;;;3.10;99.90;;;;;;5071231;28;20405;-77
2021/12/05 11:16:03;;;;;;;;;;;3.10;99.90;;;;;;5069831;28;19924;-76
2021/12/05 11:18:48;;;;;;;;;;;3.20;99.90;;;;;;5085377;28;20023;-77
2021/12/05 11:21:30;;;;;;;;;;;3.20;99.90;;;;;;5077125;28;20034;-77
2021/12/05 11:24:12;;;;;;;;;;;3.20;99.90;;;;;;5081597;28;19950;-77
2021/12/05 11:26:40;;;;;;;;;;;3.20;99.90;;;;;;5070773;28;19924;-76
2021/12/05 11:29:07;;;;;;;;;;;3.20;99.90;;;;;;5075636;28;19932;-76
2021/12/05 11:31:35;;;;;;;;;;;3.20;99.90;;;;;;5078376;28;19931;-76
2021/12/05 11:34:03;;;;;;;;;;;3.20;99.90;;;;;;5073365;28;19928;-76
2021/12/05 11:36:33;;;;;;;;;;;3.30;99.90;;;;;;5077678;28;20019;-77
2021/12/05 11:39:00;;;;;;;;;;;3.30;99.90;;;;;;5069062;28;20428;-76
2021/12/05 11:41:27;;;;;;;;;;;3.30;99.90;;;;;;5073618;28;19924;-77
2021/12/05 11:43:55;;;;;;;;;;;3.30;99.90;;;;;;5090368;28;19955;-76
2021/12/05 11:46:25;;;;;;;;;;;3.30;99.90;;;;;;5073484;28;20008;-76
2021/12/05 11:48:59;;;;;;;;;;;3.40;99.90;;;;;;5077608;28;19931;-77
2021/12/05 11:51:28;;;;;;;;;;;3.30;99.90;;;;;;5066716;28;22299;-76
2021/12/05 11:53:57;;;;;;;;;;;3.40;99.90;;;;;;5072855;28;19924;-76
2021/12/05 11:56:38;;;;;;;;;;;3.40;99.90;;;;;;5070594;28;19943;-77
2021/12/05 11:59:06;;;;;;;;;;;3.40;99.90;;;;;;5069398;28;20318;-76
2021/12/05 12:01:35;;;;;;;;;;;3.40;99.90;;;;;;5075308;28;19928;-76
2021/12/05 12:04:02;;;;;;;;;;;3.40;99.90;;;;;;5067995;28;19939;-76
2021/12/05 12:06:31;;;;;;;;;;;3.40;99.90;;;;;;5058743;28;20629;-76
2021/12/05 12:09:00;;;;;;;;;;;3.40;99.90;;;;;;5070939;28;19959;-76
2021/12/05 12:11:27;;;;;;;;;;;3.50;99.90;;;;;;5074287;28;20571;-76
2021/12/05 12:13:58;;;;;;;;;;;3.40;99.90;;;;;;5067544;28;19928;-77
2021/12/05 12:16:26;;;;;;;;;;;3.50;99.90;;;;;;5073800;28;20309;-77
2021/12/05 12:18:55;;;;;;;;;;;3.50;99.90;;;;;;5085895;28;19930;-76
2021/12/05 12:21:23;;;;;;;;;;;3.50;99.90;;;;;;5073209;28;19928;-77
2021/12/05 12:23:52;;;;;;;;;;;3.50;99.90;;;;;;5068311;28;19924;-77
2021/12/05 12:26:20;;;;;;;;;;;3.50;99.90;;;;;;5071984;28;20333;-77
2021/12/05 12:28:49;;;;;;;;;;;3.50;99.90;;;;;;5066596;28;19932;-77
2021/12/05 12:31:18;;;;;;;;;;;3.50;99.90;;;;;;5057863;28;20245;-77
2021/12/05 12:33:50;;;;;;;;;;;3.50;99.90;;;;;;5090448;28;19924;-77
2021/12/05 12:36:30;;;;;;;;;;;3.60;99.90;;;;;;5069867;28;20023;-77
2021/12/05 12:39:03;;;;;;;;;;;3.70;99.90;;;;;;5068388;28;20024;-77
2021/12/05 12:41:31;;;;;;;;;;;3.70;99.90;;;;;;5078118;28;20025;-77
2021/12/05 12:44:00;;;;;;;;;;;3.70;99.90;;;;;;5076331;28;19936;-77
2021/12/05 12:46:29;;;;;;;;;;;3.70;99.90;;;;;;5075742;28;19939;-77
2021/12/05 12:48:58;;;;;;;;;;;3.70;99.90;;;;;;5075224;28;19931;-77
2021/12/05 12:51:30;;;;;;;;;;;3.80;99.90;;;;;;5072161;28;20408;-77
2021/12/05 12:53:58;;;;;;;;;;;3.80;99.90;;;;;;5078506;28;19977;-77
2021/12/05 12:56:25;;;;;;;;;;;3.80;99.90;;;;;;5076322;28;19931;-77
2021/12/05 12:58:58;;;;;;;;;;;3.80;99.90;;;;;;5078974;28;19935;-77
2021/12/05 13:01:41;;;;;;;;;;;3.80;99.90;;;;;;5070106;28;20396;-77
2021/12/05 13:04:35;;;;;;;;;;;3.80;99.90;;;;;;5072295;28;19932;-77
2021/12/05 13:10:00;;;;;;;;;;;3.80;99.90;;;;;;5112940;22;21552;-76
2021/12/05 13:10:19;;;;;;;;;;;3.80;99.90;;;;;;5038592;28;20371;-76
2021/12/05 13:12:48;;;;;;;;;;;3.80;99.90;;;;;;5053467;28;19934;-77
2021/12/05 13:15:19;;;;;;;;;;;3.80;99.90;;;;;;5020151;28;20271;-77
2021/12/05 13:17:48;;;;;;;;;;;3.90;99.90;;;;;;5038581;28;19985;-77
2021/12/05 13:20:17;;;;;;;;;;;3.90;99.90;;;;;;5027665;28;19924;-77
2021/12/05 13:23:11;;;;;;;;;;;3.90;99.90;;;;;;5038411;28;19967;-77
2021/12/05 13:25:53;;;;;;;;;;;3.90;99.90;;;;;;5001958;28;19940;-78
2021/12/05 13:28:33;;;;;;;;;;;4.00;99.90;;;;;;5043609;28;19932;-77
2021/12/05 13:31:22;;;;;;;;;;;4.00;99.90;;;;;;5035110;28;20179;-77
2021/12/05 13:33:49;;;;;;;;;;;4.00;99.90;;;;;;5035049;28;21393;-77
2021/12/05 13:36:37;;;;;;;;;;;4.00;99.90;;;;;;5020848;28;20313;-77
2021/12/05 13:39:24;;;;;;;;;;;4.10;99.90;;;;;;5034322;28;20015;-77
2021/12/05 13:42:00;;;;;;;;;;;4.00;99.90;;;;;;5036990;28;20028;-77
2021/12/05 13:44:47;;;;;;;;;;;4.00;99.90;;;;;;5049087;28;20015;-77
2021/12/05 13:47:19;;;;;;;;;;;4.00;99.90;;;;;;5030798;28;19924;-77
2021/12/05 13:49:47;;;;;;;;;;;4.00;99.90;;;;;;5041911;28;19944;-76
2021/12/05 13:52:29;;;;;;;;;;;4.00;99.90;;;;;;5049658;28;20512;-76
2021/12/05 13:55:11;;;;;;;;;;;4.00;99.90;;;;;;5045675;28;19991;-77
2021/12/05 13:57:37;;;;;;;;;;;4.00;99.90;;;;;;5044304;28;19925;-77
2021/12/05 14:00:05;;;;;;;;;;;4.00;99.90;;;;;;5046692;28;19936;-77
2021/12/05 14:02:46;;;;;;;;;;;4.00;99.90;;;;;;5046217;28;19935;-77
2021/12/05 14:05:28;;;;;;;;;;;4.00;99.90;;;;;;5047558;28;19925;-77
2021/12/05 14:07:55;;;;;;;;;;;4.00;99.90;;;;;;5027433;28;20349;-76
2021/12/05 14:10:22;;;;;;;;;;;4.00;99.90;;;;;;5030102;28;19929;-76
2021/12/05 14:12:49;;;;;;;;;;;4.00;99.90;;;;;;5036037;28;19933;-76
2021/12/05 14:15:16;;;;;;;;;;;4.00;99.90;;;;;;5032931;28;19929;-77
2021/12/05 14:17:48;;;;;;;;;;;4.00;99.90;;;;;;5051647;28;19924;-76
2021/12/05 14:20:17;;;;;;;;;;;4.00;99.90;;;;;;5047485;28;19932;-76
2021/12/05 14:22:47;;;;;;;;;;;4.00;99.90;;;;;;5054266;28;20016;-76
2021/12/05 14:25:16;;;;;;;;;;;4.00;99.90;;;;;;5033116;28;19929;-76
2021/12/05 14:27:44;;;;;;;;;;;4.00;99.90;;;;;;5050912;28;19929;-76
2021/12/05 14:30:13;;;;;;;;;;;4.00;99.90;;;;;;5045134;28;20351;-76
2021/12/05 14:32:42;;;;;;;;;;;4.00;99.90;;;;;;5039090;28;19944;-77
2021/12/05 14:35:10;;;;;;;;;;;4.00;99.90;;;;;;5033842;28;19994;-76
2021/12/05 14:37:38;;;;;;;;;;;4.00;99.90;;;;;;5021835;28;19947;-76
2021/12/05 14:40:08;;;;;;;;;;;4.00;99.90;;;;;;5037060;28;20306;-76
2021/12/05 14:42:36;;;;;;;;;;;4.00;99.90;;;;;;5045945;28;20386;-76
2021/12/05 14:45:10;;;;;;;;;;;4.00;99.90;;;;;;5026736;28;19979;-76
2021/12/05 14:47:37;;;;;;;;;;;4.00;99.90;;;;;;5034583;28;19976;-76
2021/12/05 14:50:11;;;;;;;;;;;4.00;99.90;;;;;;5047333;28;19925;-76
2021/12/05 14:52:41;;;;;;;;;;;4.00;99.90;;;;;;5036049;28;19964;-77
2021/12/05 14:55:13;;;;;;;;;;;4.00;99.90;;;;;;5025982;28;19925;-76
2021/12/05 14:57:41;;;;;;;;;;;4.00;99.90;;;;;;5036939;28;20298;-76
2021/12/05 15:00:11;;;;;;;;;;;4.00;99.90;;;;;;5024854;28;19967;-76
2021/12/05 15:02:43;;;;;;;;;;;4.00;99.90;;;;;;5032440;28;20307;-76
2021/12/05 15:05:11;;;;;;;;;;;4.00;99.90;;;;;;5030881;28;19954;-76
2021/12/05 15:07:42;;;;;;;;;;;4.00;99.90;;;;;;5036625;28;20358;-76
2021/12/05 15:10:20;;;;;;;;;;;4.00;99.90;;;;;;5016562;28;19925;-76
2021/12/05 15:12:57;;;;;;;;;;;4.00;99.90;;;;;;5023134;28;19933;-76
2021/12/05 15:15:25;;;;;;;;;;;4.00;99.90;;;;;;5030798;28;19939;-76
2021/12/05 15:17:54;;;;;;;;;;;4.00;99.90;;;;;;5016329;28;19933;-78
2021/12/05 15:20:24;;;;;;;;;;;4.00;99.90;;;;;;5022826;28;20393;-76
2021/12/05 15:22:53;;;;;;;;;;;4.00;99.90;;;;;;5044287;28;19925;-76
2021/12/05 15:25:27;;;;;;;;;;;4.00;99.90;;;;;;5035634;28;19924;-77
2021/12/05 15:27:55;;;;;;;;;;;4.00;99.90;;;;;;5044721;28;20344;-76
2021/12/05 15:30:23;;;;;;;;;;;4.10;99.90;;;;;;5039666;28;19925;-75
2021/12/05 15:32:51;;;;;;;;;;;4.10;99.90;;;;;;5040012;28;19931;-77
2021/12/05 15:35:19;;;;;;;;;;;4.10;99.90;;;;;;5044546;28;20425;-76
2021/12/05 15:37:47;;;;;;;;;;;4.10;99.90;;;;;;5026558;28;20366;-76
2021/12/05 15:40:15;;;;;;;;;;;4.10;99.90;;;;;;5026091;28;19929;-76
2021/12/05 15:42:43;;;;;;;;;;;4.10;99.90;;;;;;5042018;28;20299;-76
2021/12/05 15:45:16;;;;;;;;;;;4.10;99.90;;;;;;5047990;28;19928;-77
2021/12/05 15:47:46;;;;;;;;;;;4.20;99.90;;;;;;5040851;28;19929;-75
2021/12/05 15:50:26;;;;;;;;;;;4.20;99.90;;;;;;5038850;28;19935;-76
2021/12/05 15:52:54;;;;;;;;;;;4.20;99.90;;;;;;5023839;28;19928;-77
2021/12/05 15:55:23;;;;;;;;;;;4.20;99.90;;;;;;5032273;28;19928;-75
2021/12/05 15:57:53;;;;;;;;;;;4.20;99.90;;;;;;5028636;28;19932;-76
2021/12/05 16:00:23;;;;;;;;;;;4.20;99.90;;;;;;5034291;28;19931;-75
2021/12/05 16:02:56;;;;;;;;;;;4.20;99.90;;;;;;5042761;28;19933;-76
2021/12/05 16:05:30;;;;;;;;;;;4.20;99.90;;;;;;5023649;28;19935;-76
2021/12/05 16:08:01;;;;;;;;;;;4.20;99.90;;;;;;5037773;28;19933;-76
2021/12/05 16:10:32;;;;;;;;;;;4.20;99.90;;;;;;5031548;28;19929;-77
2021/12/05 16:13:09;;;;;;;;;;;4.10;99.90;;;;;;5041424;28;19928;-76
2021/12/05 16:15:36;;;;;;;;;;;4.10;99.90;;;;;;5027296;28;19944;-77
2021/12/05 16:18:03;;;;;;;;;;;4.10;99.90;;;;;;5047923;28;19932;-76
2021/12/05 16:20:36;;;;;;;;;;;4.10;99.90;;;;;;5047339;28;19994;-76
2021/12/05 16:23:07;;;;;;;;;;;4.10;99.90;;;;;;5030321;28;20190;-77
2021/12/05 16:25:41;;;;;;;;;;;4.10;99.90;;;;;;5049428;28;19925;-77
2021/12/05 16:28:12;;;;;;;;;;;4.00;99.90;;;;;;5045041;28;19932;-77
2021/12/05 16:30:41;;;;;;;;;;;4.10;99.90;;;;;;5044496;28;20476;-77
2021/12/05 16:33:08;;;;;;;;;;;4.10;99.90;;;;;;5049706;28;19931;-77
2021/12/05 16:35:36;;;;;;;;;;;4.10;99.90;;;;;;5046637;28;19928;-76
2021/12/05 16:38:18;;;;;;;;;;;4.10;99.90;;;;;;5026363;28;20317;-77
2021/12/05 16:40:52;;;;;;;;;;;4.10;99.90;;;;;;5027115;28;19932;-76
2021/12/05 16:43:21;;;;;;;;;;;4.10;99.90;;;;;;5049941;28;19985;-77
2021/12/05 16:45:48;;;;;;;;;;;4.10;99.90;;;;;;5021972;28;20306;-76
2021/12/05 16:48:16;;;;;;;;;;;4.10;99.90;;;;;;5029980;28;19925;-76
2021/12/05 16:50:44;;;;;;;;;;;4.10;99.90;;;;;;5049240;28;19951;-77
2021/12/05 16:53:13;;;;;;;;;;;4.10;99.90;;;;;;5033017;28;19967;-76
2021/12/05 16:55:44;;;;;;;;;;;4.00;99.90;;;;;;5028370;28;19947;-75
2021/12/05 16:58:17;;;;;;;;;;;4.10;99.90;;;;;;5031624;28;19924;-77
2021/12/05 17:00:49;;;;;;;;;;;4.10;99.90;;;;;;5023567;28;19933;-75
2021/12/05 17:03:19;;;;;;;;;;;4.10;99.90;;;;;;5045615;28;19936;-76
2021/12/05 17:05:50;;;;;;;;;;;4.10;99.90;;;;;;5051064;28;19928;-77
2021/12/05 17:08:24;;;;;;;;;;;4.10;99.90;;;;;;5028339;28;20379;-76
2021/12/05 17:10:52;;;;;;;;;;;4.10;99.90;;;;;;5032009;28;20032;-76
2021/12/05 17:13:21;;;;;;;;;;;4.00;99.90;;;;;;5046235;28;20062;-76
2021/12/05 17:15:59;;;;;;;;;;;4.00;99.90;;;;;;5048589;28;19932;-76
2021/12/05 17:18:36;;;;;;;;;;;4.00;99.90;;;;;;5028160;28;20391;-77
2021/12/05 17:21:07;;;;;;;;;;;4.00;99.90;;;;;;5048700;28;19960;-76
2021/12/05 17:23:42;;;;;;;;;;;4.00;99.90;;;;;;5050696;28;19925;-76
2021/12/05 17:26:11;;;;;;;;;;;4.00;99.90;;;;;;5029412;28;19970;-76
2021/12/05 17:28:39;;;;;;;;;;;4.00;99.90;;;;;;5034598;28;20007;-76
2021/12/05 17:31:09;;;;;;;;;;;4.00;99.90;;;;;;5027953;28;19939;-76
2021/12/05 17:33:38;;;;;;;;;;;4.00;99.90;;;;;;5031438;28;19971;-76
2021/12/05 17:36:16;;;;;;;;;;;4.00;99.90;;;;;;5045388;28;19925;-77
2021/12/05 17:38:44;;;;;;;;;;;4.00;99.90;;;;;;5027675;28;19941;-76
2021/12/05 17:41:11;;;;;;;;;;;4.00;99.90;;;;;;5047076;28;20015;-76
2021/12/05 17:43:38;;;;;;;;;;;4.00;99.90;;;;;;5041837;28;19940;-76
2021/12/05 17:46:05;;;;;;;;;;;4.00;99.90;;;;;;5052423;28;19968;-76
2021/12/05 17:48:34;;;;;;;;;;;4.00;99.90;;;;;;5050974;28;20015;-77
2021/12/05 17:51:04;;;;;;;;;;;4.00;99.90;;;;;;5028706;28;19925;-76
2021/12/05 17:53:32;;;;;;;;;;;4.00;99.90;;;;;;5048835;28;19971;-76
2021/12/05 17:56:05;;;;;;;;;;;4.00;99.90;;;;;;5043093;28;19931;-75
2021/12/05 17:58:53;;;;;;;;;;;4.00;99.90;;;;;;5033588;28;20405;-76
2021/12/05 18:04:07;;;;;;;;;;;4.00;99.90;;;;;;5034862;28;19932;-76
2021/12/05 18:06:34;;;;;;;;;;;4.00;99.90;;;;;;5033218;28;20310;-76
2021/12/05 18:09:02;;;;;;;;;;;4.00;99.90;;;;;;5032631;28;19932;-77
2021/12/05 18:13:58;;;;;;;;;;;4.00;99.90;;;;;;5080486;22;20335;-77
2021/12/05 18:16:27;;;;;;;;;;;4.00;99.90;;;;;;5029450;28;19989;-76
2021/12/05 18:18:55;;;;;;;;;;;4.00;99.90;;;;;;5032199;28;20469;-76
2021/12/05 18:21:25;;;;;;;;;;;4.00;99.90;;;;;;5018658;28;20338;-76
2021/12/05 18:23:53;;;;;;;;;;;4.00;99.90;;;;;;5007248;28;19967;-77
2021/12/05 18:26:21;;;;;;;;;;;4.00;99.90;;;;;;5011185;28;19926;-76
2021/12/05 18:28:49;;;;;;;;;;;4.00;99.90;;;;;;5011989;28;19956;-76
2021/12/05 18:31:19;;;;;;;;;;;4.00;99.90;;;;;;5010302;28;20438;-76
2021/12/05 18:33:47;;;;;;;;;;;4.00;99.90;;;;;;5020104;28;19979;-76
2021/12/05 18:36:14;;;;;;;;;;;4.00;99.90;;;;;;5014328;28;20319;-76
2021/12/05 18:38:43;;;;;;;;;;;4.00;99.90;;;;;;5012731;28;19971;-76
2021/12/05 18:41:11;;;;;;;;;;;4.00;99.90;;;;;;5004000;28;19933;-76
2021/12/05 18:43:39;;;;;;;;;;;4.00;99.90;;;;;;5010364;28;19948;-76
2021/12/05 18:46:07;;;;;;;;;;;4.00;99.90;;;;;;5008575;28;19929;-76
2021/12/05 18:48:38;;;;;;;;;;;4.00;99.90;;;;;;5006367;28;19980;-77
2021/12/05 18:51:06;;;;;;;;;;;4.00;99.90;;;;;;5004414;28;19936;-76
2021/12/05 18:53:33;;;;;;;;;;;4.00;99.90;;;;;;5013285;28;20272;-76
2021/12/05 18:56:02;;;;;;;;;;;4.00;99.90;;;;;;5011599;28;19929;-76
2021/12/05 18:58:29;;;;;;;;;;;4.00;99.90;;;;;;5010276;28;19925;-76